sensor_id;sensor_type;location;lat;lon;timestamp;pressure;altitude;pressure_sealevel;temperature;humidity
61786;BME280;47692;53.714;11.372;2022-09-27T00:00:58;98848.66;;;9.98;100.00
61786;BME280;47692;53.714;11.372;2022-09-27T00:03:23;98855.09;;;9.91;100.00
61786;BME280;47692;53.714;11.372;2022-09-27T00:08:30;98849.28;;;9.86;100.00
61786;BME280;47692;53.714;11.372;2022-09-27T00:11:00;98852.94;;;9.82;100.00
61786;BME280;47692;53.714;11.372;2022-09-27T00:13:26;98844.50;;;9.77;100.00
61786;BME280;47692;53.714;11.372;2022-09-27T00:15:56;98845.41;;;9.76;100.00
61786;BME280;47692;53.714;11.372;2022-09-27T00:18:22;98848.31;;;9.69;100.00
61786;BME280;47692;53.714;11.372;2022-09-27T00:20:47;98840.50;;;9.69;100.00
61786;BME280;47692;53.714;11.372;2022-09-27T00:23:13;98840.66;;;9.66;100.00
61786;BME280;47692;53.714;11.372;2022-09-27T00:25:38;98834.69;;;9.64;100.00
61786;BME280;47692;53.714;11.372;2022-09-27T00:28:03;98838.97;;;9.65;100.00
61786;BME280;47692;53.714;11.372;2022-09-27T00:30:29;98837.44;;;9.61;100.00
61786;BME280;47692;53.714;11.372;2022-09-27T00:32:54;98830.69;;;9.57;100.00
61786;BME280;47692;53.714;11.372;2022-09-27T00:35:19;98833.28;;;9.57;100.00
61786;BME280;47692;53.714;11.372;2022-09-27T00:37:47;98831.47;;;9.59;100.00
61786;BME280;47692;53.714;11.372;2022-09-27T00:40:13;98828.84;;;9.59;100.00
61786;BME280;47692;53.714;11.372;2022-09-27T00:42:39;98822.84;;;9.57;100.00
61786;BME280;47692;53.714;11.372;2022-09-27T00:45:11;98824.84;;;9.52;100.00
61786;BME280;47692;53.714;11.372;2022-09-27T00:47:45;98829.00;;;9.56;100.00
61786;BME280;47692;53.714;11.372;2022-09-27T00:50:19;98825.75;;;9.51;100.00
61786;BME280;47692;53.714;11.372;2022-09-27T00:52:58;98822.25;;;9.52;100.00
61786;BME280;47692;53.714;11.372;2022-09-27T00:55:30;98817.19;;;9.49;100.00
61786;BME280;47692;53.714;11.372;2022-09-27T00:57:57;98811.13;;;9.48;100.00
61786;BME280;47692;53.714;11.372;2022-09-27T01:00:22;98814.13;;;9.41;100.00
61786;BME280;47692;53.714;11.372;2022-09-27T01:02:50;98800.31;;;9.38;100.00
61786;BME280;47692;53.714;11.372;2022-09-27T01:05:19;98804.69;;;9.38;100.00
61786;BME280;47692;53.714;11.372;2022-09-27T01:07:45;98800.31;;;9.38;100.00
61786;BME280;47692;53.714;11.372;2022-09-27T01:10:11;98791.88;;;9.33;100.00
61786;BME280;47692;53.714;11.372;2022-09-27T01:20:54;98785.44;;;9.23;100.00
61786;BME280;47692;53.714;11.372;2022-09-27T01:26:44;98774.31;;;9.19;100.00
61786;BME280;47692;53.714;11.372;2022-09-27T01:32:43;98775.31;;;9.17;100.00
61786;BME280;47692;53.714;11.372;2022-09-27T01:35:19;98770.13;;;9.17;100.00
61786;BME280;47692;53.714;11.372;2022-09-27T01:38:18;98775.31;;;9.17;100.00
61786;BME280;47692;53.714;11.372;2022-09-27T01:43:40;98759.88;;;9.14;100.00
61786;BME280;47692;53.714;11.372;2022-09-27T01:46:10;98759.63;;;9.18;100.00
61786;BME280;47692;53.714;11.372;2022-09-27T01:48:44;98763.13;;;9.17;100.00
61786;BME280;47692;53.714;11.372;2022-09-27T01:51:20;98761.53;;;9.15;100.00
61786;BME280;47692;53.714;11.372;2022-09-27T01:53:51;98758.72;;;9.19;100.00
61786;BME280;47692;53.714;11.372;2022-09-27T01:56:32;98749.91;;;9.22;100.00
61786;BME280;47692;53.714;11.372;2022-09-27T01:59:32;98753.50;;;9.19;100.00
61786;BME280;47692;53.714;11.372;2022-09-27T02:02:05;98755.31;;;9.17;100.00
61786;BME280;47692;53.714;11.372;2022-09-27T02:04:33;98746.69;;;9.17;100.00
61786;BME280;47692;53.714;11.372;2022-09-27T02:07:07;98744.91;;;9.17;100.00
61786;BME280;47692;53.714;11.372;2022-09-27T02:09:40;98737.09;;;9.17;100.00
61786;BME280;47692;53.714;11.372;2022-09-27T02:12:10;98738.88;;;9.17;100.00
61786;BME280;47692;53.714;11.372;2022-09-27T02:14:46;98737.19;;;9.16;100.00
61786;BME280;47692;53.714;11.372;2022-09-27T02:25:29;98726.63;;;9.19;100.00
61786;BME280;47692;53.714;11.372;2022-09-27T02:30:39;98723.25;;;9.17;100.00
61786;BME280;47692;53.714;11.372;2022-09-27T02:33:05;98724.31;;;9.13;100.00
61786;BME280;47692;53.714;11.372;2022-09-27T02:35:32;98722.47;;;9.15;100.00
61786;BME280;47692;53.714;11.372;2022-09-27T02:37:59;98714.81;;;9.12;100.00
61786;BME280;47692;53.714;11.372;2022-09-27T02:40:29;98716.50;;;9.13;100.00
61786;BME280;47692;53.714;11.372;2022-09-27T02:42:55;98719.13;;;9.13;100.00
61786;BME280;47692;53.714;11.372;2022-09-27T02:45:21;98713.00;;;9.14;100.00
61786;BME280;47692;53.714;11.372;2022-09-27T02:47:51;98711.44;;;9.10;100.00
61786;BME280;47692;53.714;11.372;2022-09-27T02:50:35;98708.75;;;9.11;100.00
61786;BME280;47692;53.714;11.372;2022-09-27T02:56:02;98705.19;;;9.14;100.00
61786;BME280;47692;53.714;11.372;2022-09-27T03:01:36;98706.09;;;9.13;100.00
61786;BME280;47692;53.714;11.372;2022-09-27T03:04:15;98711.59;;;9.07;100.00
61786;BME280;47692;53.714;11.372;2022-09-27T03:06:44;98704.84;;;9.02;100.00
61786;BME280;47692;53.714;11.372;2022-09-27T03:09:21;98693.75;;;8.99;100.00
61786;BME280;47692;53.714;11.372;2022-09-27T03:11:46;98701.50;;;9.00;100.00
61786;BME280;47692;53.714;11.372;2022-09-27T03:14:13;98692.91;;;8.98;100.00
61786;BME280;47692;53.714;11.372;2022-09-27T03:16:38;98696.41;;;8.97;100.00
61786;BME280;47692;53.714;11.372;2022-09-27T03:19:04;98683.41;;;8.97;100.00
61786;BME280;47692;53.714;11.372;2022-09-27T03:21:29;98680.19;;;8.92;100.00
61786;BME280;47692;53.714;11.372;2022-09-27T03:23:55;98686.94;;;8.96;100.00
61786;BME280;47692;53.714;11.372;2022-09-27T03:26:20;98681.88;;;8.93;100.00
61786;BME280;47692;53.714;11.372;2022-09-27T03:28:46;98686.31;;;8.91;100.00
61786;BME280;47692;53.714;11.372;2022-09-27T03:31:11;98682.50;;;8.98;100.00
61786;BME280;47692;53.714;11.372;2022-09-27T03:33:36;98675.91;;;8.91;100.00
61786;BME280;47692;53.714;11.372;2022-09-27T03:36:02;98674.84;;;8.95;100.00
61786;BME280;47692;53.714;11.372;2022-09-27T03:38:28;98672.53;;;8.89;100.00
61786;BME280;47692;53.714;11.372;2022-09-27T03:40:53;98678.66;;;8.88;100.00
61786;BME280;47692;53.714;11.372;2022-09-27T03:43:19;98677.59;;;8.92;100.00
61786;BME280;47692;53.714;11.372;2022-09-27T03:45:44;98666.09;;;8.96;100.00
61786;BME280;47692;53.714;11.372;2022-09-27T03:48:10;98663.66;;;8.93;100.00
61786;BME280;47692;53.714;11.372;2022-09-27T03:50:35;98662.13;;;8.89;100.00
61786;BME280;47692;53.714;11.372;2022-09-27T03:53:01;98659.44;;;8.91;100.00
61786;BME280;47692;53.714;11.372;2022-09-27T03:55:26;98656.78;;;8.92;100.00
61786;BME280;47692;53.714;11.372;2022-09-27T03:57:51;98653.09;;;8.96;100.00
61786;BME280;47692;53.714;11.372;2022-09-27T04:00:17;98649.88;;;8.91;100.00
61786;BME280;47692;53.714;11.372;2022-09-27T04:02:43;98653.09;;;8.96;100.00
61786;BME280;47692;53.714;11.372;2022-09-27T04:05:09;98649.44;;;9.00;100.00
61786;BME280;47692;53.714;11.372;2022-09-27T04:07:35;98650.56;;;8.95;100.00
61786;BME280;47692;53.714;11.372;2022-09-27T04:10:02;98637.63;;;8.93;100.00
61786;BME280;47692;53.714;11.372;2022-09-27T04:12:28;98633.25;;;8.94;100.00
61786;BME280;47692;53.714;11.372;2022-09-27T04:14:54;98635.81;;;8.95;100.00
61786;BME280;47692;53.714;11.372;2022-09-27T04:17:19;98640.84;;;8.98;100.00
61786;BME280;47692;53.714;11.372;2022-09-27T04:19:44;98638.34;;;8.97;100.00
61786;BME280;47692;53.714;11.372;2022-09-27T04:22:10;98643.38;;;9.00;100.00
61786;BME280;47692;53.714;11.372;2022-09-27T04:24:35;98642.53;;;8.99;100.00
61786;BME280;47692;53.714;11.372;2022-09-27T04:27:01;98642.69;;;8.96;100.00
61786;BME280;47692;53.714;11.372;2022-09-27T04:29:26;98635.81;;;8.95;100.00
61786;BME280;47692;53.714;11.372;2022-09-27T04:31:52;98642.38;;;9.02;100.00
61786;BME280;47692;53.714;11.372;2022-09-27T04:34:17;98637.47;;;8.96;100.00
61786;BME280;47692;53.714;11.372;2022-09-27T04:37:02;98638.34;;;8.97;100.00
61786;BME280;47692;53.714;11.372;2022-09-27T04:39:28;98637.16;;;9.02;100.00
61786;BME280;47692;53.714;11.372;2022-09-27T04:41:53;98637.63;;;8.93;100.00
61786;BME280;47692;53.714;11.372;2022-09-27T04:44:19;98635.66;;;8.98;100.00
61786;BME280;47692;53.714;11.372;2022-09-27T04:46:44;98627.75;;;9.00;100.00
61786;BME280;47692;53.714;11.372;2022-09-27T04:49:10;98632.81;;;9.03;100.00
61786;BME280;47692;53.714;11.372;2022-09-27T04:51:35;98635.34;;;9.04;100.00
61786;BME280;47692;53.714;11.372;2022-09-27T04:54:00;98633.75;;;9.02;100.00
61786;BME280;47692;53.714;11.372;2022-09-27T04:56:26;98619.91;;;9.01;100.00
61786;BME280;47692;53.714;11.372;2022-09-27T04:58:51;98634.66;;;9.01;100.00
61786;BME280;47692;53.714;11.372;2022-09-27T05:01:16;98634.66;;;9.01;100.00
61786;BME280;47692;53.714;11.372;2022-09-27T05:03:41;98635.34;;;9.04;100.00
61786;BME280;47692;53.714;11.372;2022-09-27T05:06:07;98635.03;;;9.11;100.00
61786;BME280;47692;53.714;11.372;2022-09-27T05:08:32;98630.97;;;9.05;100.00
61786;BME280;47692;53.714;11.372;2022-09-27T05:10:57;98629.22;;;9.05;100.00
61786;BME280;47692;53.714;11.372;2022-09-27T05:13:23;98629.22;;;9.05;100.00
61786;BME280;47692;53.714;11.372;2022-09-27T05:15:48;98620.50;;;9.07;100.00
61786;BME280;47692;53.714;11.372;2022-09-27T05:18:14;98625.53;;;9.10;100.00
61786;BME280;47692;53.714;11.372;2022-09-27T05:20:39;98626.63;;;9.05;100.00
61786;BME280;47692;53.714;11.372;2022-09-27T05:23:04;98616.22;;;9.05;100.00
61786;BME280;47692;53.714;11.372;2022-09-27T05:25:31;98625.44;;;9.11;100.00
61786;BME280;47692;53.714;11.372;2022-09-27T05:27:57;98628.31;;;9.07;100.00
61786;BME280;47692;53.714;11.372;2022-09-27T05:30:23;98629.06;;;9.09;100.00
61786;BME280;47692;53.714;11.372;2022-09-27T05:32:49;98626.16;;;9.15;100.00
61786;BME280;47692;53.714;11.372;2022-09-27T05:35:16;98632.34;;;9.12;100.00
61786;BME280;47692;53.714;11.372;2022-09-27T05:37:49;98620.50;;;9.07;100.00
61786;BME280;47692;53.714;11.372;2022-09-27T05:40:15;98622.94;;;9.10;100.00
61786;BME280;47692;53.714;11.372;2022-09-27T05:42:40;98619.59;;;9.08;100.00
61786;BME280;47692;53.714;11.372;2022-09-27T05:45:05;98618.91;;;9.04;100.00
61786;BME280;47692;53.714;11.372;2022-09-27T05:47:31;98621.56;;;9.02;100.00
61786;BME280;47692;53.714;11.372;2022-09-27T05:49:56;98624.03;;;9.05;100.00
61786;BME280;47692;53.714;11.372;2022-09-27T05:52:22;98618.66;;;9.09;100.00
61786;BME280;47692;53.714;11.372;2022-09-27T05:54:47;98616.97;;;9.08;100.00
61786;BME280;47692;53.714;11.372;2022-09-27T05:57:13;98619.72;;;9.04;100.00
61786;BME280;47692;53.714;11.372;2022-09-27T05:59:38;98621.03;;;9.13;100.00
61786;BME280;47692;53.714;11.372;2022-09-27T06:02:05;98618.59;;;9.10;100.00
61786;BME280;47692;53.714;11.372;2022-09-27T06:04:31;98624.53;;;9.12;100.00
61786;BME280;47692;53.714;11.372;2022-09-27T06:06:56;98619.28;;;9.14;100.00
61786;BME280;47692;53.714;11.372;2022-09-27T06:09:23;98620.81;;;9.18;100.00
61786;BME280;47692;53.714;11.372;2022-09-27T06:11:48;98623.41;;;9.18;100.00
61786;BME280;47692;53.714;11.372;2022-09-27T06:14:15;98626.84;;;9.18;100.00
61786;BME280;47692;53.714;11.372;2022-09-27T06:16:40;98619.09;;;9.17;100.00
61786;BME280;47692;53.714;11.372;2022-09-27T06:19:06;98621.56;;;9.20;100.00
61786;BME280;47692;53.714;11.372;2022-09-27T06:21:31;98615.41;;;9.21;100.00
61786;BME280;47692;53.714;11.372;2022-09-27T06:23:57;98613.41;;;9.26;100.00
61786;BME280;47692;53.714;11.372;2022-09-27T06:26:24;98610.91;;;9.25;100.00
61786;BME280;47692;53.714;11.372;2022-09-27T06:28:51;98617.72;;;9.27;100.00
61786;BME280;47692;53.714;11.372;2022-09-27T06:31:17;98611.59;;;9.28;100.00
61786;BME280;47692;53.714;11.372;2022-09-27T06:33:42;98618.81;;;9.23;100.00
61786;BME280;47692;53.714;11.372;2022-09-27T06:36:08;98624.69;;;9.27;100.00
61786;BME280;47692;53.714;11.372;2022-09-27T06:38:33;98614.28;;;9.27;100.00
61786;BME280;47692;53.714;11.372;2022-09-27T06:41:01;98619.25;;;9.31;100.00
61786;BME280;47692;53.714;11.372;2022-09-27T06:43:26;98619.00;;;9.36;100.00
61786;BME280;47692;53.714;11.372;2022-09-27T06:45:52;98619.94;;;9.35;100.00
61786;BME280;47692;53.714;11.372;2022-09-27T06:48:18;98608.53;;;9.37;100.00
61786;BME280;47692;53.714;11.372;2022-09-27T06:50:45;98614.16;;;9.46;100.00
61786;BME280;47692;53.714;11.372;2022-09-27T06:53:12;98618.78;;;9.41;100.00
61786;BME280;47692;53.714;11.372;2022-09-27T06:55:38;98623.06;;;9.42;100.00
61786;BME280;47692;53.714;11.372;2022-09-27T06:58:05;98620.56;;;9.40;100.00
61786;BME280;47692;53.714;11.372;2022-09-27T07:00:51;98622.75;;;9.48;100.00
61786;BME280;47692;53.714;11.372;2022-09-27T07:03:17;98619.22;;;9.49;100.00
61786;BME280;47692;53.714;11.372;2022-09-27T07:05:53;98622.06;;;9.44;100.00
61786;BME280;47692;53.714;11.372;2022-09-27T07:08:20;98628.28;;;9.42;100.00
61786;BME280;47692;53.714;11.372;2022-09-27T07:10:45;98627.00;;;9.33;100.00
61786;BME280;47692;53.714;11.372;2022-09-27T07:13:10;98639.00;;;9.35;100.00
61786;BME280;47692;53.714;11.372;2022-09-27T07:15:38;98641.75;;;9.32;100.00
61786;BME280;47692;53.714;11.372;2022-09-27T07:18:05;98645.22;;;9.33;100.00
61786;BME280;47692;53.714;11.372;2022-09-27T07:20:32;98643.38;;;9.35;100.00
61786;BME280;47692;53.714;11.372;2022-09-27T07:22:58;98638.22;;;9.33;100.00
61786;BME280;47692;53.714;11.372;2022-09-27T07:25:24;98640.69;;;9.36;100.00
61786;BME280;47692;53.714;11.372;2022-09-27T07:27:50;98639.38;;;9.45;100.00
61786;BME280;47692;53.714;11.372;2022-09-27T07:30:17;98652.31;;;9.47;100.00
61786;BME280;47692;53.714;11.372;2022-09-27T07:32:43;98654.00;;;9.48;100.00
61786;BME280;47692;53.714;11.372;2022-09-27T07:35:10;98647.63;;;9.53;100.00
61786;BME280;47692;53.714;11.372;2022-09-27T07:37:36;98646.66;;;9.56;100.00
61786;BME280;47692;53.714;11.372;2022-09-27T07:40:04;98648.84;;;9.64;100.00
61786;BME280;47692;53.714;11.372;2022-09-27T07:42:32;98650.53;;;9.65;100.00
61786;BME280;47692;53.714;11.372;2022-09-27T07:44:57;98648.53;;;9.70;100.00
61786;BME280;47692;53.714;11.372;2022-09-27T07:47:23;98646.75;;;9.70;100.00
61786;BME280;47692;53.714;11.372;2022-09-27T07:49:50;98655.94;;;9.78;100.00
61786;BME280;47692;53.714;11.372;2022-09-27T07:52:17;98655.78;;;9.81;100.00
61786;BME280;47692;53.714;11.372;2022-09-27T07:54:43;98653.94;;;9.83;100.00
61786;BME280;47692;53.714;11.372;2022-09-27T07:57:09;98652.00;;;9.86;100.00
61786;BME280;47692;53.714;11.372;2022-09-27T07:59:35;98660.97;;;9.81;100.00
61786;BME280;47692;53.714;11.372;2022-09-27T08:02:00;98659.16;;;9.83;100.00
61786;BME280;47692;53.714;11.372;2022-09-27T08:04:25;98655.63;;;9.84;100.00
61786;BME280;47692;53.714;11.372;2022-09-27T08:06:51;98651.94;;;9.88;100.00
61786;BME280;47692;53.714;11.372;2022-09-27T08:09:16;98651.09;;;9.88;100.00
61786;BME280;47692;53.714;11.372;2022-09-27T08:11:41;98649.25;;;9.90;100.00
61786;BME280;47692;53.714;11.372;2022-09-27T08:14:09;98652.13;;;10.01;100.00
61786;BME280;47692;53.714;11.372;2022-09-27T08:16:35;98653.31;;;10.27;100.00
61786;BME280;47692;53.714;11.372;2022-09-27T08:19:00;98655.34;;;10.54;100.00
61786;BME280;47692;53.714;11.372;2022-09-27T08:21:25;98656.03;;;10.58;100.00
61786;BME280;47692;53.714;11.372;2022-09-27T08:23:51;98660.44;;;10.57;100.00
61786;BME280;47692;53.714;11.372;2022-09-27T08:26:16;98661.09;;;10.45;100.00
61786;BME280;47692;53.714;11.372;2022-09-27T08:28:41;98665.25;;;10.31;100.00
61786;BME280;47692;53.714;11.372;2022-09-27T08:31:07;98661.06;;;10.29;100.00
61786;BME280;47692;53.714;11.372;2022-09-27T08:33:32;98660.22;;;10.28;100.00
61786;BME280;47692;53.714;11.372;2022-09-27T08:35:57;98658.38;;;10.30;100.00
61786;BME280;47692;53.714;11.372;2022-09-27T08:38:23;98660.22;;;10.28;100.00
61786;BME280;47692;53.714;11.372;2022-09-27T08:41:07;98661.56;;;10.35;100.00
61786;BME280;47692;53.714;11.372;2022-09-27T08:43:51;98654.19;;;10.44;100.00
61786;BME280;47692;53.714;11.372;2022-09-27T08:46:31;98660.09;;;10.47;100.00
61786;BME280;47692;53.714;11.372;2022-09-27T08:49:11;98663.19;;;10.54;100.00
61786;BME280;47692;53.714;11.372;2022-09-27T08:51:38;98667.34;;;10.58;100.00
61786;BME280;47692;53.714;11.372;2022-09-27T08:54:27;98664.53;;;10.61;100.00
61786;BME280;47692;53.714;11.372;2022-09-27T08:57:00;98663.28;;;10.69;100.00
61786;BME280;47692;53.714;11.372;2022-09-27T08:59:30;98661.94;;;10.61;100.00
61786;BME280;47692;53.714;11.372;2022-09-27T09:01:58;98663.78;;;10.59;100.00
61786;BME280;47692;53.714;11.372;2022-09-27T09:04:32;98666.56;;;10.56;100.00
61786;BME280;47692;53.714;11.372;2022-09-27T09:10:33;98660.91;;;10.48;100.00
61786;BME280;47692;53.714;11.372;2022-09-27T09:14:06;98654.19;;;10.44;100.00
61786;BME280;47692;53.714;11.372;2022-09-27T09:27:42;98671.44;;;10.62;100.00
61786;BME280;47692;53.714;11.372;2022-09-27T09:30:19;98677.25;;;10.67;100.00
61786;BME280;47692;53.714;11.372;2022-09-27T09:35:34;98684.59;;;10.45;100.00
61786;BME280;47692;53.714;11.372;2022-09-27T09:38:11;98683.31;;;10.36;100.00
61786;BME280;47692;53.714;11.372;2022-09-27T09:43:16;98686.03;;;10.50;100.00
61786;BME280;47692;53.714;11.372;2022-09-27T09:45:47;98669.16;;;10.56;100.00
61786;BME280;47692;53.714;11.372;2022-09-27T09:48:23;98678.69;;;10.73;100.00
61786;BME280;47692;53.714;11.372;2022-09-27T09:50:55;98677.91;;;10.87;100.00
61786;BME280;47692;53.714;11.372;2022-09-27T09:56:42;98679.31;;;11.23;100.00
61786;BME280;47692;53.714;11.372;2022-09-27T09:59:25;98680.66;;;11.30;100.00
61786;BME280;47692;53.714;11.372;2022-09-27T10:01:51;98676.75;;;11.38;100.00
61786;BME280;47692;53.714;11.372;2022-09-27T10:04:22;98680.31;;;11.37;100.00
61786;BME280;47692;53.714;11.372;2022-09-27T10:06:49;98672.06;;;11.28;100.00
61786;BME280;47692;53.714;11.372;2022-09-27T10:09:16;98673.75;;;11.29;100.00
61786;BME280;47692;53.714;11.372;2022-09-27T10:11:45;98672.81;;;11.30;100.00
61786;BME280;47692;53.714;11.372;2022-09-27T10:14:14;98674.22;;;11.36;100.00
61786;BME280;47692;53.714;11.372;2022-09-27T10:16:47;98679.22;;;11.55;100.00
61786;BME280;47692;53.714;11.372;2022-09-27T10:19:20;98677.69;;;11.51;100.00
61786;BME280;47692;53.714;11.372;2022-09-27T10:21:51;98678.25;;;11.42;100.00
61786;BME280;47692;53.714;11.372;2022-09-27T10:24:17;98679.63;;;11.33;100.00
61786;BME280;47692;53.714;11.372;2022-09-27T10:26:45;98669.44;;;11.14;100.00
61786;BME280;47692;53.714;11.372;2022-09-27T10:29:32;98669.91;;;11.21;100.00
61786;BME280;47692;53.714;11.372;2022-09-27T10:32:01;98673.19;;;11.39;100.00
61786;BME280;47692;53.714;11.372;2022-09-27T10:34:39;98674.47;;;11.76;100.00
61786;BME280;47692;53.714;11.372;2022-09-27T10:39:38;98671.56;;;12.24;98.60
61786;BME280;47692;53.714;11.372;2022-09-27T10:42:34;98671.19;;;12.45;95.68
61786;BME280;47692;53.714;11.372;2022-09-27T10:47:51;98670.66;;;12.95;96.17
61786;BME280;47692;53.714;11.372;2022-09-27T10:50:20;98672.25;;;12.70;91.40
61786;BME280;47692;53.714;11.372;2022-09-27T10:52:48;98680.91;;;12.43;92.96
61786;BME280;47692;53.714;11.372;2022-09-27T10:55:22;98683.56;;;12.28;93.54
61786;BME280;47692;53.714;11.372;2022-09-27T10:57:51;98669.97;;;12.36;95.30
61786;BME280;47692;53.714;11.372;2022-09-27T11:00:21;98690.16;;;12.49;96.78
61786;BME280;47692;53.714;11.372;2022-09-27T11:02:56;98686.25;;;12.69;96.68
61786;BME280;47692;53.714;11.372;2022-09-27T11:07:59;98681.91;;;14.01;88.12
61786;BME280;47692;53.714;11.372;2022-09-27T11:10:34;98683.34;;;13.41;87.01
61786;BME280;47692;53.714;11.372;2022-09-27T11:13:14;98680.16;;;13.36;88.11
61786;BME280;47692;53.714;11.372;2022-09-27T11:21:55;98690.28;;;12.18;90.06
61786;BME280;47692;53.714;11.372;2022-09-27T11:24:08;98695.22;;;11.94;93.41
61786;BME280;47692;53.714;11.372;2022-09-27T11:26:52;98696.72;;;11.98;95.26
61786;BME280;47692;53.714;11.372;2022-09-27T11:29:39;98693.28;;;11.98;94.44
61786;BME280;47692;53.714;11.372;2022-09-27T11:32:25;98698.69;;;12.09;94.35
61786;BME280;47692;53.714;11.372;2022-09-27T11:34:59;98698.22;;;12.31;94.01
61786;BME280;47692;53.714;11.372;2022-09-27T11:43:01;98696.09;;;12.92;91.45
61786;BME280;47692;53.714;11.372;2022-09-27T11:45:52;98691.72;;;12.66;89.65
61786;BME280;47692;53.714;11.372;2022-09-27T11:54:11;98702.97;;;12.24;93.94
61786;BME280;47692;53.714;11.372;2022-09-27T11:56:58;98709.34;;;12.06;92.88
61786;BME280;47692;53.714;11.372;2022-09-27T12:02:41;98707.75;;;11.44;95.15
61786;BME280;47692;53.714;11.372;2022-09-27T12:05:35;98713.84;;;11.28;96.19
61786;BME280;47692;53.714;11.372;2022-09-27T12:08:25;98723.22;;;11.32;97.69
61786;BME280;47692;53.714;11.372;2022-09-27T12:10:58;98714.78;;;11.27;96.59
61786;BME280;47692;53.714;11.372;2022-09-27T12:13:41;98721.13;;;11.23;98.43
61786;BME280;47692;53.714;11.372;2022-09-27T12:16:09;98720.34;;;11.21;100.00
61786;BME280;47692;53.714;11.372;2022-09-27T12:18:38;98730.19;;;11.02;100.00
61786;BME280;47692;53.714;11.372;2022-09-27T12:21:06;98730.94;;;11.04;100.00
61786;BME280;47692;53.714;11.372;2022-09-27T12:26:09;98726.56;;;10.88;100.00
61786;BME280;47692;53.714;11.372;2022-09-27T12:31:14;98728.25;;;10.89;100.00
61786;BME280;47692;53.714;11.372;2022-09-27T12:33:50;98729.50;;;11.14;100.00
61786;BME280;47692;53.714;11.372;2022-09-27T12:36:21;98732.34;;;11.40;99.48
61786;BME280;47692;53.714;11.372;2022-09-27T12:38:53;98733.19;;;11.71;97.63
61786;BME280;47692;53.714;11.372;2022-09-27T12:41:21;98735.69;;;12.03;98.02
61786;BME280;47692;53.714;11.372;2022-09-27T12:43:48;98742.69;;;12.17;94.04
61786;BME280;47692;53.714;11.372;2022-09-27T12:57:02;98736.38;;;11.90;94.79
61786;BME280;47692;53.714;11.372;2022-09-27T12:59:50;98742.44;;;11.91;94.89
61786;BME280;47692;53.714;11.372;2022-09-27T13:02:50;98751.41;;;11.87;94.04
61786;BME280;47692;53.714;11.372;2022-09-27T13:08:15;98752.69;;;12.10;95.21
61786;BME280;47692;53.714;11.372;2022-09-27T13:13:53;98752.13;;;12.19;93.45
61786;BME280;47692;53.714;11.372;2022-09-27T13:16:19;98752.13;;;12.19;93.19
61786;BME280;47692;53.714;11.372;2022-09-27T13:18:53;98747.06;;;12.02;93.54
61786;BME280;47692;53.714;11.372;2022-09-27T13:29:48;98763.31;;;12.65;91.52
61786;BME280;47692;53.714;11.372;2022-09-27T13:32:16;98751.75;;;12.96;90.59
61786;BME280;47692;53.714;11.372;2022-09-27T13:34:43;98773.13;;;13.03;88.99
61786;BME280;47692;53.714;11.372;2022-09-27T13:45:25;98775.31;;;12.40;89.76
61786;BME280;47692;53.714;11.372;2022-09-27T13:47:53;98777.53;;;12.32;90.69
61786;BME280;47692;53.714;11.372;2022-09-27T13:50:27;98786.53;;;12.27;90.98
61786;BME280;47692;53.714;11.372;2022-09-27T13:53:01;98788.03;;;12.88;89.50
61786;BME280;47692;53.714;11.372;2022-09-27T13:55:45;98780.84;;;12.91;87.40
61786;BME280;47692;53.714;11.372;2022-09-27T14:01:02;98790.81;;;12.57;89.35
61786;BME280;47692;53.714;11.372;2022-09-27T14:03:36;98798.47;;;12.60;90.49
61786;BME280;47692;53.714;11.372;2022-09-27T14:06:04;98791.94;;;12.53;89.97
61786;BME280;47692;53.714;11.372;2022-09-27T14:08:33;98781.09;;;12.59;89.67
61786;BME280;47692;53.714;11.372;2022-09-27T14:11:01;98787.34;;;12.71;88.29
61786;BME280;47692;53.714;11.372;2022-09-27T14:13:28;98790.72;;;12.59;88.70
61786;BME280;47692;53.714;11.372;2022-09-27T14:15:58;98783.53;;;12.34;90.16
61786;BME280;47692;53.714;11.372;2022-09-27T14:18:26;98793.63;;;12.11;90.35
61786;BME280;47692;53.714;11.372;2022-09-27T14:20:52;98797.25;;;12.08;91.43
61786;BME280;47692;53.714;11.372;2022-09-27T14:23:32;98792.47;;;12.01;92.68
61786;BME280;47692;53.714;11.372;2022-09-27T14:25:57;98806.91;;;11.92;90.50
61786;BME280;47692;53.714;11.372;2022-09-27T14:28:27;98804.44;;;11.74;91.79
61786;BME280;47692;53.714;11.372;2022-09-27T14:31:14;98810.41;;;11.76;93.19
61786;BME280;47692;53.714;11.372;2022-09-27T14:33:42;98809.88;;;11.86;92.48
61786;BME280;47692;53.714;11.372;2022-09-27T14:36:22;98808.13;;;11.86;92.56
61786;BME280;47692;53.714;11.372;2022-09-27T14:39:31;98814.97;;;11.73;92.04
61786;BME280;47692;53.714;11.372;2022-09-27T14:41:58;98817.94;;;11.67;91.78
61786;BME280;47692;53.714;11.372;2022-09-27T14:44:24;98821.50;;;11.66;93.26
61786;BME280;47692;53.714;11.372;2022-09-27T14:47:16;98826.63;;;11.67;93.84
61786;BME280;47692;53.714;11.372;2022-09-27T14:49:46;98820.69;;;11.49;94.20
61786;BME280;47692;53.714;11.372;2022-09-27T14:52:17;98834.09;;;11.43;94.90
61786;BME280;47692;53.714;11.372;2022-09-27T14:54:42;98821.19;;;11.40;95.46
61786;BME280;47692;53.714;11.372;2022-09-27T14:57:13;98828.09;;;11.41;96.37
61786;BME280;47692;53.714;11.372;2022-09-27T14:59:41;98833.00;;;11.47;96.47
61786;BME280;47692;53.714;11.372;2022-09-27T15:02:17;98830.47;;;11.45;95.73
61786;BME280;47692;53.714;11.372;2022-09-27T15:04:45;98832.31;;;11.43;96.11
61786;BME280;47692;53.714;11.372;2022-09-27T15:07:12;98834.84;;;11.45;96.58
61786;BME280;47692;53.714;11.372;2022-09-27T15:09:40;98836.38;;;11.49;97.06
61786;BME280;47692;53.714;11.372;2022-09-27T15:12:06;98839.13;;;11.46;97.04